sensor_id;sensor_type;location;lat;lon;timestamp;pressure;altitude;pressure_sealevel;temperature;humidity
22662;BME280;11497;52.222;21.246;2023-12-04T00:01:54;100707.75;;;-2.38;85.12
22662;BME280;11497;52.222;21.246;2023-12-04T00:04:22;100709.09;;;-2.30;85.35
22662;BME280;11497;52.222;21.246;2023-12-04T00:06:50;100712.47;;;-2.30;85.40
22662;BME280;11497;52.222;21.246;2023-12-04T00:09:18;100715.59;;;-2.34;85.38
22662;BME280;11497;52.222;21.246;2023-12-04T00:11:46;100718.03;;;-2.35;85.33
22662;BME280;11497;52.222;21.246;2023-12-04T00:14:14;100715.41;;;-2.37;85.90
22662;BME280;11497;52.222;21.246;2023-12-04T00:16:42;100715.66;;;-2.32;85.74
22662;BME280;11497;52.222;21.246;2023-12-04T00:19:10;100719.09;;;-2.32;85.59
22662;BME280;11497;52.222;21.246;2023-12-04T00:21:38;100711.53;;;-2.32;86.00
22662;BME280;11497;52.222;21.246;2023-12-04T00:24:06;100715.09;;;-2.28;85.67
22662;BME280;11497;52.222;21.246;2023-12-04T00:26:34;100721.09;;;-2.26;85.69
22662;BME280;11497;52.222;21.246;2023-12-04T00:29:02;100721.97;;;-2.26;85.37
22662;BME280;11497;52.222;21.246;2023-12-04T00:31:30;100720.03;;;-2.30;85.90
22662;BME280;11497;52.222;21.246;2023-12-04T00:33:59;100724.56;;;-2.24;85.90
22662;BME280;11497;52.222;21.246;2023-12-04T00:36:28;100723.53;;;-2.28;86.14
22662;BME280;11497;52.222;21.246;2023-12-04T00:38:56;100724.78;;;-2.21;86.18
22662;BME280;11497;52.222;21.246;2023-12-04T00:41:24;100721.72;;;-2.15;85.79
22662;BME280;11497;52.222;21.246;2023-12-04T00:43:52;100729.50;;;-2.12;85.55
22662;BME280;11497;52.222;21.246;2023-12-04T00:46:19;100728.72;;;-2.11;85.75
22662;BME280;11497;52.222;21.246;2023-12-04T00:48:47;100726.69;;;-2.17;85.36
22662;BME280;11497;52.222;21.246;2023-12-04T00:51:15;100729.81;;;-2.21;85.82
22662;BME280;11497;52.222;21.246;2023-12-04T00:53:43;100734.53;;;-2.12;85.86
22662;BME280;11497;52.222;21.246;2023-12-04T00:56:11;100748.81;;;-2.13;85.64
22662;BME280;11497;52.222;21.246;2023-12-04T00:58:39;100742.28;;;-2.09;85.42
22662;BME280;11497;52.222;21.246;2023-12-04T01:01:07;100743.94;;;-2.10;85.85
22662;BME280;11497;52.222;21.246;2023-12-04T01:03:35;100745.66;;;-2.09;85.95
22662;BME280;11497;52.222;21.246;2023-12-04T01:06:03;100739.25;;;-2.03;85.87
22662;BME280;11497;52.222;21.246;2023-12-04T01:08:31;100745.25;;;-2.01;85.63
22662;BME280;11497;52.222;21.246;2023-12-04T01:10:59;100745.00;;;-2.06;85.98
22662;BME280;11497;52.222;21.246;2023-12-04T01:13:27;100743.34;;;-2.05;86.13
22662;BME280;11497;52.222;21.246;2023-12-04T01:15:55;100749.25;;;-2.05;86.03
22662;BME280;11497;52.222;21.246;2023-12-04T01:18:23;100753.63;;;-2.02;86.17
22662;BME280;11497;52.222;21.246;2023-12-04T01:20:51;100752.16;;;-1.99;86.07
22662;BME280;11497;52.222;21.246;2023-12-04T01:23:19;100753.72;;;-2.01;86.00
22662;BME280;11497;52.222;21.246;2023-12-04T01:25:47;100748.56;;;-2.02;86.28
22662;BME280;11497;52.222;21.246;2023-12-04T01:28:15;100749.53;;;-2.00;86.49
22662;BME280;11497;52.222;21.246;2023-12-04T01:30:43;100755.72;;;-1.95;86.42
22662;BME280;11497;52.222;21.246;2023-12-04T01:33:11;100743.50;;;-1.89;86.13
22662;BME280;11497;52.222;21.246;2023-12-04T01:35:39;100752.69;;;-1.90;85.94
22662;BME280;11497;52.222;21.246;2023-12-04T01:38:07;100754.72;;;-1.84;86.05
22662;BME280;11497;52.222;21.246;2023-12-04T01:40:36;100752.09;;;-1.85;85.55
22662;BME280;11497;52.222;21.246;2023-12-04T01:43:04;100759.59;;;-1.87;85.96
22662;BME280;11497;52.222;21.246;2023-12-04T01:45:32;100756.00;;;-1.91;85.82
22662;BME280;11497;52.222;21.246;2023-12-04T01:48:01;100758.63;;;-1.89;85.82
22662;BME280;11497;52.222;21.246;2023-12-04T01:50:30;100757.47;;;-1.94;85.86
22662;BME280;11497;52.222;21.246;2023-12-04T01:52:58;100757.06;;;-1.87;86.11
22662;BME280;11497;52.222;21.246;2023-12-04T01:55:26;100770.03;;;-1.81;86.00
22662;BME280;11497;52.222;21.246;2023-12-04T01:57:54;100763.34;;;-1.80;85.99
22662;BME280;11497;52.222;21.246;2023-12-04T02:00:23;100762.44;;;-1.81;85.49
22662;BME280;11497;52.222;21.246;2023-12-04T02:02:52;100763.91;;;-1.84;85.57
22662;BME280;11497;52.222;21.246;2023-12-04T02:05:21;100764.72;;;-1.85;85.47
22662;BME280;11497;52.222;21.246;2023-12-04T02:07:50;100767.25;;;-1.85;85.79
22662;BME280;11497;52.222;21.246;2023-12-04T02:10:19;100762.97;;;-1.86;85.70
22662;BME280;11497;52.222;21.246;2023-12-04T02:12:47;100771.25;;;-1.89;85.56
22662;BME280;11497;52.222;21.246;2023-12-04T02:15:15;100782.53;;;-1.82;85.70
22662;BME280;11497;52.222;21.246;2023-12-04T02:17:44;100786.44;;;-1.88;85.30
22662;BME280;11497;52.222;21.246;2023-12-04T02:20:16;100788.91;;;-1.89;84.48
22662;BME280;11497;52.222;21.246;2023-12-04T02:22:45;100791.81;;;-1.96;84.82
22662;BME280;11497;52.222;21.246;2023-12-04T02:25:12;100781.34;;;-1.89;83.96
22662;BME280;11497;52.222;21.246;2023-12-04T02:28:05;100786.53;;;-1.86;83.77
22662;BME280;11497;52.222;21.246;2023-12-04T02:30:35;100788.06;;;-1.75;83.31
22662;BME280;11497;52.222;21.246;2023-12-04T02:33:07;100789.56;;;-1.92;83.46
22662;BME280;11497;52.222;21.246;2023-12-04T02:35:38;100793.03;;;-2.04;83.61
22662;BME280;11497;52.222;21.246;2023-12-04T02:38:07;100796.81;;;-2.11;83.60
22662;BME280;11497;52.222;21.246;2023-12-04T02:40:35;100795.16;;;-2.11;83.68
22662;BME280;11497;52.222;21.246;2023-12-04T02:43:03;100791.16;;;-2.07;83.63
22662;BME280;11497;52.222;21.246;2023-12-04T02:45:31;100789.59;;;-2.05;83.84
22662;BME280;11497;52.222;21.246;2023-12-04T02:47:59;100793.09;;;-2.03;83.80
22662;BME280;11497;52.222;21.246;2023-12-04T02:50:27;100793.78;;;-2.05;84.01
22662;BME280;11497;52.222;21.246;2023-12-04T02:52:55;100796.38;;;-1.91;83.95
22662;BME280;11497;52.222;21.246;2023-12-04T02:55:23;100793.06;;;-1.90;83.20
22662;BME280;11497;52.222;21.246;2023-12-04T02:57:52;100810.53;;;-1.93;83.35
22662;BME280;11497;52.222;21.246;2023-12-04T03:00:19;100807.84;;;-1.96;83.43
22662;BME280;11497;52.222;21.246;2023-12-04T03:02:47;100810.84;;;-2.01;83.50
22662;BME280;11497;52.222;21.246;2023-12-04T03:05:15;100811.13;;;-1.97;83.22
22662;BME280;11497;52.222;21.246;2023-12-04T03:07:43;100813.22;;;-2.04;83.03
22662;BME280;11497;52.222;21.246;2023-12-04T03:10:11;100804.28;;;-2.13;83.32
22662;BME280;11497;52.222;21.246;2023-12-04T03:12:39;100813.13;;;-2.19;83.00
22662;BME280;11497;52.222;21.246;2023-12-04T03:15:07;100815.97;;;-2.28;83.29
22662;BME280;11497;52.222;21.246;2023-12-04T03:17:36;100811.59;;;-2.31;83.37
22662;BME280;11497;52.222;21.246;2023-12-04T03:20:04;100822.38;;;-2.33;83.54
22662;BME280;11497;52.222;21.246;2023-12-04T03:22:35;100813.44;;;-2.28;82.99
22662;BME280;11497;52.222;21.246;2023-12-04T03:25:04;100822.16;;;-2.23;83.06
22662;BME280;11497;52.222;21.246;2023-12-04T03:27:32;100818.69;;;-2.25;82.40
22662;BME280;11497;52.222;21.246;2023-12-04T03:30:00;100824.69;;;-2.23;82.42
22662;BME280;11497;52.222;21.246;2023-12-04T03:32:28;100823.63;;;-2.40;82.84
22662;BME280;11497;52.222;21.246;2023-12-04T03:34:56;100828.97;;;-2.35;82.72
22662;BME280;11497;52.222;21.246;2023-12-04T03:37:25;100826.81;;;-2.42;82.49
22662;BME280;11497;52.222;21.246;2023-12-04T03:39:52;100833.16;;;-2.49;83.26
22662;BME280;11497;52.222;21.246;2023-12-04T03:42:20;100834.78;;;-2.50;83.32
22662;BME280;11497;52.222;21.246;2023-12-04T03:44:48;100844.09;;;-2.49;83.26
22662;BME280;11497;52.222;21.246;2023-12-04T03:47:16;100834.22;;;-2.46;83.17
22662;BME280;11497;52.222;21.246;2023-12-04T03:49:44;100846.72;;;-2.47;83.24
22662;BME280;11497;52.222;21.246;2023-12-04T03:52:12;100848.94;;;-2.52;83.55
22662;BME280;11497;52.222;21.246;2023-12-04T03:54:40;100839.72;;;-2.38;83.14
22662;BME280;11497;52.222;21.246;2023-12-04T03:57:10;100842.34;;;-2.50;83.27
22662;BME280;11497;52.222;21.246;2023-12-04T03:59:38;100845.81;;;-2.48;83.31
22662;BME280;11497;52.222;21.246;2023-12-04T04:02:06;100840.31;;;-2.55;83.89
22662;BME280;11497;52.222;21.246;2023-12-04T04:04:34;100848.47;;;-2.59;83.77
22662;BME280;11497;52.222;21.246;2023-12-04T04:07:03;100842.53;;;-2.60;83.99
22662;BME280;11497;52.222;21.246;2023-12-04T04:09:31;100845.44;;;-2.67;84.05
22662;BME280;11497;52.222;21.246;2023-12-04T04:11:59;100851.06;;;-2.71;84.62
22662;BME280;11497;52.222;21.246;2023-12-04T04:14:27;100845.84;;;-2.74;84.21
22662;BME280;11497;52.222;21.246;2023-12-04T04:16:55;100848.56;;;-2.71;84.78
22662;BME280;11497;52.222;21.246;2023-12-04T04:19:22;100847.28;;;-2.78;84.15
22662;BME280;11497;52.222;21.246;2023-12-04T04:21:51;100856.41;;;-2.80;84.41
22662;BME280;11497;52.222;21.246;2023-12-04T04:24:19;100854.66;;;-2.68;83.85
22662;BME280;11497;52.222;21.246;2023-12-04T04:26:47;100860.66;;;-2.66;83.79
22662;BME280;11497;52.222;21.246;2023-12-04T04:29:14;100857.66;;;-2.60;83.76
22662;BME280;11497;52.222;21.246;2023-12-04T04:31:42;100855.22;;;-2.72;83.88
22662;BME280;11497;52.222;21.246;2023-12-04T04:34:10;100856.66;;;-2.75;83.99
22662;BME280;11497;52.222;21.246;2023-12-04T04:36:38;100852.22;;;-2.79;84.03
22662;BME280;11497;52.222;21.246;2023-12-04T04:39:06;100851.06;;;-2.85;83.48
22662;BME280;11497;52.222;21.246;2023-12-04T04:41:34;100853.88;;;-2.80;83.72
22662;BME280;11497;52.222;21.246;2023-12-04T04:44:02;100857.75;;;-2.85;83.66
22662;BME280;11497;52.222;21.246;2023-12-04T04:46:30;100863.53;;;-2.86;83.55
22662;BME280;11497;52.222;21.246;2023-12-04T04:48:58;100862.00;;;-2.84;83.93
22662;BME280;11497;52.222;21.246;2023-12-04T04:51:28;100862.38;;;-2.91;84.06
22662;BME280;11497;52.222;21.246;2023-12-04T04:53:57;100864.25;;;-2.89;84.03
22662;BME280;11497;52.222;21.246;2023-12-04T04:56:25;100865.31;;;-2.85;83.98
22662;BME280;11497;52.222;21.246;2023-12-04T04:58:53;100867.16;;;-2.69;83.31
22662;BME280;11497;52.222;21.246;2023-12-04T05:01:21;100866.16;;;-2.85;83.52
22662;BME280;11497;52.222;21.246;2023-12-04T05:03:49;100862.00;;;-2.84;83.23
22662;BME280;11497;52.222;21.246;2023-12-04T05:06:17;100862.69;;;-2.87;83.56
22662;BME280;11497;52.222;21.246;2023-12-04T05:08:45;100859.56;;;-2.83;83.38
22662;BME280;11497;52.222;21.246;2023-12-04T05:11:15;100864.50;;;-2.84;83.44
22662;BME280;11497;52.222;21.246;2023-12-04T05:13:44;100861.50;;;-2.92;83.92
22662;BME280;11497;52.222;21.246;2023-12-04T05:16:12;100866.06;;;-2.86;83.23
22662;BME280;11497;52.222;21.246;2023-12-04T05:18:40;100881.59;;;-2.80;82.48
22662;BME280;11497;52.222;21.246;2023-12-04T05:21:09;100883.28;;;-2.92;82.93
22662;BME280;11497;52.222;21.246;2023-12-04T05:23:38;100875.44;;;-2.97;83.42
22662;BME280;11497;52.222;21.246;2023-12-04T05:26:07;100878.25;;;-2.92;83.10
22662;BME280;11497;52.222;21.246;2023-12-04T05:28:35;100878.88;;;-2.83;82.97
22662;BME280;11497;52.222;21.246;2023-12-04T05:31:03;100881.94;;;-2.87;82.42
22662;BME280;11497;52.222;21.246;2023-12-04T05:33:32;100888.91;;;-2.96;83.01
22662;BME280;11497;52.222;21.246;2023-12-04T05:36:01;100883.13;;;-2.95;83.16
22662;BME280;11497;52.222;21.246;2023-12-04T05:38:28;100886.44;;;-2.83;82.55
22662;BME280;11497;52.222;21.246;2023-12-04T05:40:56;100890.19;;;-2.90;82.28
22662;BME280;11497;52.222;21.246;2023-12-04T05:43:24;100889.22;;;-2.92;82.85
22662;BME280;11497;52.222;21.246;2023-12-04T05:45:52;100885.81;;;-2.92;82.98
22662;BME280;11497;52.222;21.246;2023-12-04T05:48:20;100886.69;;;-2.92;82.81
22662;BME280;11497;52.222;21.246;2023-12-04T05:50:48;100891.47;;;-2.83;82.71
22662;BME280;11497;52.222;21.246;2023-12-04T05:53:17;100894.63;;;-2.86;82.52
22662;BME280;11497;52.222;21.246;2023-12-04T05:55:45;100888.31;;;-2.92;82.54
22662;BME280;11497;52.222;21.246;2023-12-04T05:58:13;100893.38;;;-2.92;82.82
22662;BME280;11497;52.222;21.246;2023-12-04T06:00:42;100892.91;;;-2.87;83.11
22662;BME280;11497;52.222;21.246;2023-12-04T06:03:10;100896.78;;;-2.92;82.55
22662;BME280;11497;52.222;21.246;2023-12-04T06:05:38;100891.53;;;-2.95;83.12
22662;BME280;11497;52.222;21.246;2023-12-04T06:08:06;100900.69;;;-2.84;83.42
22662;BME280;11497;52.222;21.246;2023-12-04T06:10:34;100903.44;;;-2.92;82.51
22662;BME280;11497;52.222;21.246;2023-12-04T06:13:02;100901.66;;;-2.81;83.11
22662;BME280;11497;52.222;21.246;2023-12-04T06:15:30;100912.00;;;-2.90;83.13
22662;BME280;11497;52.222;21.246;2023-12-04T06:17:58;100908.13;;;-2.85;82.81
22662;BME280;11497;52.222;21.246;2023-12-04T06:20:27;100902.47;;;-2.94;82.62
22662;BME280;11497;52.222;21.246;2023-12-04T06:22:55;100910.66;;;-2.85;82.18
22662;BME280;11497;52.222;21.246;2023-12-04T06:25:23;100900.47;;;-2.87;82.08
22662;BME280;11497;52.222;21.246;2023-12-04T06:27:51;100906.97;;;-2.90;82.62
22662;BME280;11497;52.222;21.246;2023-12-04T06:30:20;100915.38;;;-2.90;82.67
22662;BME280;11497;52.222;21.246;2023-12-04T06:32:48;100919.44;;;-2.92;82.86
22662;BME280;11497;52.222;21.246;2023-12-04T06:35:16;100913.81;;;-2.88;82.95
22662;BME280;11497;52.222;21.246;2023-12-04T06:37:48;100914.44;;;-2.78;82.18
22662;BME280;11497;52.222;21.246;2023-12-04T06:40:18;100919.84;;;-2.86;82.02
22662;BME280;11497;52.222;21.246;2023-12-04T06:42:46;100921.97;;;-2.92;82.52
22662;BME280;11497;52.222;21.246;2023-12-04T06:45:14;100923.25;;;-2.85;82.61
22662;BME280;11497;52.222;21.246;2023-12-04T06:47:44;100924.59;;;-2.90;82.72
22662;BME280;11497;52.222;21.246;2023-12-04T06:50:13;100924.81;;;-2.74;82.39
22662;BME280;11497;52.222;21.246;2023-12-04T06:52:41;100918.31;;;-2.84;82.37
22662;BME280;11497;52.222;21.246;2023-12-04T06:55:09;100919.06;;;-2.85;82.09
22662;BME280;11497;52.222;21.246;2023-12-04T06:57:37;100916.44;;;-2.86;82.45
22662;BME280;11497;52.222;21.246;2023-12-04T07:00:05;100914.03;;;-2.85;82.58
22662;BME280;11497;52.222;21.246;2023-12-04T07:02:49;100917.84;;;-2.78;81.87
22662;BME280;11497;52.222;21.246;2023-12-04T07:05:19;100918.03;;;-2.75;82.16
22662;BME280;11497;52.222;21.246;2023-12-04T07:07:49;100924.34;;;-2.68;82.05
22662;BME280;11497;52.222;21.246;2023-12-04T07:10:17;100928.81;;;-2.64;82.31
22662;BME280;11497;52.222;21.246;2023-12-04T07:12:45;100920.50;;;-2.63;82.19
22662;BME280;11497;52.222;21.246;2023-12-04T07:15:14;100930.94;;;-2.57;81.79
22662;BME280;11497;52.222;21.246;2023-12-04T07:17:42;100930.94;;;-2.57;82.21
22662;BME280;11497;52.222;21.246;2023-12-04T07:20:10;100927.84;;;-2.53;81.97
22662;BME280;11497;52.222;21.246;2023-12-04T07:22:39;100929.22;;;-2.45;81.53
22662;BME280;11497;52.222;21.246;2023-12-04T07:25:08;100929.31;;;-2.43;81.70
22662;BME280;11497;52.222;21.246;2023-12-04T07:27:36;100922.81;;;-2.39;81.28
22662;BME280;11497;52.222;21.246;2023-12-04T07:30:07;100922.91;;;-2.38;81.07
22662;BME280;11497;52.222;21.246;2023-12-04T07:32:35;100924.28;;;-2.30;81.38
22662;BME280;11497;52.222;21.246;2023-12-04T07:35:04;100927.59;;;-2.17;80.96
22662;BME280;11497;52.222;21.246;2023-12-04T07:37:32;100941.75;;;-2.06;80.74
22662;BME280;11497;52.222;21.246;2023-12-04T07:40:00;100941.16;;;-2.02;80.33
22662;BME280;11497;52.222;21.246;2023-12-04T07:42:28;100942.72;;;-2.04;80.44
22662;BME280;11497;52.222;21.246;2023-12-04T07:44:57;100942.81;;;-2.02;80.06
22662;BME280;11497;52.222;21.246;2023-12-04T07:47:25;100939.34;;;-2.04;80.13
22662;BME280;11497;52.222;21.246;2023-12-04T07:49:53;100946.81;;;-2.06;79.56
22662;BME280;11497;52.222;21.246;2023-12-04T07:52:21;100940.19;;;-2.04;79.43
22662;BME280;11497;52.222;21.246;2023-12-04T07:54:49;100940.09;;;-1.92;77.83
22662;BME280;11497;52.222;21.246;2023-12-04T07:57:17;100946.91;;;-2.04;78.45
22662;BME280;11497;52.222;21.246;2023-12-04T07:59:46;100947.25;;;-2.12;78.96
22662;BME280;11497;52.222;21.246;2023-12-04T08:02:18;100944.94;;;-2.09;78.68
22662;BME280;11497;52.222;21.246;2023-12-04T08:04:46;100950.59;;;-1.99;78.58
22662;BME280;11497;52.222;21.246;2023-12-04T08:07:14;100944.44;;;-2.03;78.58
22662;BME280;11497;52.222;21.246;2023-12-04T08:09:43;100948.81;;;-2.00;79.00
22662;BME280;11497;52.222;21.246;2023-12-04T08:12:11;100947.94;;;-1.88;78.79
22662;BME280;11497;52.222;21.246;2023-12-04T08:14:39;100950.53;;;-1.73;78.78
22662;BME280;11497;52.222;21.246;2023-12-04T08:17:07;100944.91;;;-1.68;78.28
22662;BME280;11497;52.222;21.246;2023-12-04T08:19:35;100958.69;;;-1.63;78.27
22662;BME280;11497;52.222;21.246;2023-12-04T08:22:05;100958.19;;;-1.58;77.99
22662;BME280;11497;52.222;21.246;2023-12-04T08:24:33;100958.00;;;-1.61;77.86
22662;BME280;11497;52.222;21.246;2023-12-04T08:27:01;100954.97;;;-1.55;77.80
22662;BME280;11497;52.222;21.246;2023-12-04T08:29:29;100963.25;;;-1.58;77.63
22662;BME280;11497;52.222;21.246;2023-12-04T08:31:57;100967.41;;;-1.58;77.58
22662;BME280;11497;52.222;21.246;2023-12-04T08:34:25;100965.38;;;-1.51;77.43
22662;BME280;11497;52.222;21.246;2023-12-04T08:36:53;100973.13;;;-1.47;77.41
22662;BME280;11497;52.222;21.246;2023-12-04T08:39:21;100973.22;;;-1.46;77.17
22662;BME280;11497;52.222;21.246;2023-12-04T08:41:50;100970.28;;;-1.39;76.88
22662;BME280;11497;52.222;21.246;2023-12-04T08:44:29;100971.97;;;-1.39;76.76
22662;BME280;11497;52.222;21.246;2023-12-04T08:46:57;100972.81;;;-1.39;76.84
22662;BME280;11497;52.222;21.246;2023-12-04T08:49:26;100983.69;;;-1.40;76.57
22662;BME280;11497;52.222;21.246;2023-12-04T08:52:09;100980.69;;;-1.34;76.84
22662;BME280;11497;52.222;21.246;2023-12-04T08:54:40;100985.91;;;-1.31;76.53
22662;BME280;11497;52.222;21.246;2023-12-04T08:57:09;100994.53;;;-1.27;76.55
22662;BME280;11497;52.222;21.246;2023-12-04T08:59:37;100990.53;;;-1.24;76.12
22662;BME280;11497;52.222;21.246;2023-12-04T09:02:05;100990.91;;;-1.18;75.34
22662;BME280;11497;52.222;21.246;2023-12-04T09:04:34;100985.19;;;-1.15;75.29
22662;BME280;11497;52.222;21.246;2023-12-04T09:07:02;100986.34;;;-1.10;75.15
22662;BME280;11497;52.222;21.246;2023-12-04T09:09:50;100988.88;;;-1.10;75.29
22662;BME280;11497;52.222;21.246;2023-12-04T09:12:18;100990.59;;;-1.09;75.23
22662;BME280;11497;52.222;21.246;2023-12-04T09:14:46;100989.72;;;-1.09;75.14
22662;BME280;11497;52.222;21.246;2023-12-04T09:17:14;100996.59;;;-1.07;74.87
22662;BME280;11497;52.222;21.246;2023-12-04T09:19:44;100992.94;;;-1.12;74.96
22662;BME280;11497;52.222;21.246;2023-12-04T09:22:12;101007.34;;;-1.24;75.13
22662;BME280;11497;52.222;21.246;2023-12-04T09:24:48;101000.94;;;-1.33;75.55
22662;BME280;11497;52.222;21.246;2023-12-04T09:27:16;100997.25;;;-1.24;75.58
22662;BME280;11497;52.222;21.246;2023-12-04T09:29:44;100991.00;;;-1.16;75.51
22662;BME280;11497;52.222;21.246;2023-12-04T09:32:12;100986.78;;;-1.02;75.67
22662;BME280;11497;52.222;21.246;2023-12-04T09:34:42;100981.69;;;-0.89;75.32
22662;BME280;11497;52.222;21.246;2023-12-04T09:37:09;100971.25;;;-0.80;74.93
22662;BME280;11497;52.222;21.246;2023-12-04T09:39:39;100978.16;;;-0.63;73.66
22662;BME280;11497;52.222;21.246;2023-12-04T09:42:08;100966.81;;;-0.69;73.58
22662;BME280;11497;52.222;21.246;2023-12-04T09:44:37;100967.75;;;-0.67;73.85
22662;BME280;11497;52.222;21.246;2023-12-04T09:47:08;100975.25;;;-0.69;74.05
22662;BME280;11497;52.222;21.246;2023-12-04T09:49:37;100970.28;;;-0.67;73.54
22662;BME280;11497;52.222;21.246;2023-12-04T09:52:06;100978.31;;;-0.74;73.29
22662;BME280;11497;52.222;21.246;2023-12-04T09:54:36;100971.09;;;-0.68;73.25
22662;BME280;11497;52.222;21.246;2023-12-04T09:57:05;100967.75;;;-0.67;73.27
22662;BME280;11497;52.222;21.246;2023-12-04T09:59:34;100965.97;;;-0.55;72.55
22662;BME280;11497;52.222;21.246;2023-12-04T10:02:04;100968.22;;;-0.45;71.94
22662;BME280;11497;52.222;21.246;2023-12-04T10:04:32;100973.38;;;-0.58;72.54
22662;BME280;11497;52.222;21.246;2023-12-04T10:07:04;100971.50;;;-0.61;72.90
22662;BME280;11497;52.222;21.246;2023-12-04T10:09:32;100962.44;;;-0.57;72.19
22662;BME280;11497;52.222;21.246;2023-12-04T10:12:00;100971.59;;;-0.59;71.86
22662;BME280;11497;52.222;21.246;2023-12-04T10:14:29;100966.81;;;-0.69;72.90
22662;BME280;11497;52.222;21.246;2023-12-04T10:16:57;100971.75;;;-0.71;72.22
22662;BME280;11497;52.222;21.246;2023-12-04T10:19:27;100966.78;;;-0.84;72.41
22662;BME280;11497;52.222;21.246;2023-12-04T10:21:58;100962.09;;;-0.78;72.92
22662;BME280;11497;52.222;21.246;2023-12-04T10:24:39;100962.78;;;-0.81;72.48
22662;BME280;11497;52.222;21.246;2023-12-04T10:27:08;100965.38;;;-0.79;72.96
22662;BME280;11497;52.222;21.246;2023-12-04T10:29:49;100967.22;;;-0.77;73.17
22662;BME280;11497;52.222;21.246;2023-12-04T10:32:21;100965.75;;;-0.73;72.63
22662;BME280;11497;52.222;21.246;2023-12-04T10:34:49;100966.00;;;-0.83;73.22
22662;BME280;11497;52.222;21.246;2023-12-04T10:37:18;100971.06;;;-0.83;73.13
22662;BME280;11497;52.222;21.246;2023-12-04T10:39:51;100971.56;;;-0.89;73.20
22662;BME280;11497;52.222;21.246;2023-12-04T10:42:37;100967.81;;;-0.96;73.47
22662;BME280;11497;52.222;21.246;2023-12-04T10:45:06;100973.16;;;-0.91;72.90
22662;BME280;11497;52.222;21.246;2023-12-04T10:47:34;100972.44;;;-0.88;72.97
22662;BME280;11497;52.222;21.246;2023-12-04T10:50:03;100970.78;;;-0.88;73.30
22662;BME280;11497;52.222;21.246;2023-12-04T10:52:32;100966.34;;;-0.92;73.48
22662;BME280;11497;52.222;21.246;2023-12-04T10:55:02;100970.44;;;-0.94;73.71
22662;BME280;11497;52.222;21.246;2023-12-04T10:57:37;100968.63;;;-0.82;73.72
22662;BME280;11497;52.222;21.246;2023-12-04T11:00:07;100961.13;;;-0.80;73.50
22662;BME280;11497;52.222;21.246;2023-12-04T11:02:41;100969.69;;;-0.63;72.73
22662;BME280;11497;52.222;21.246;2023-12-04T11:05:16;100969.94;;;-0.59;73.02
22662;BME280;11497;52.222;21.246;2023-12-04T11:07:53;100970.56;;;-0.48;72.59
22662;BME280;11497;52.222;21.246;2023-12-04T11:10:59;100969.19;;;-0.43;72.40
22662;BME280;11497;52.222;21.246;2023-12-04T11:13:32;100966.03;;;-0.39;72.54
22662;BME280;11497;52.222;21.246;2023-12-04T11:16:12;100968.91;;;-0.32;72.53
22662;BME280;11497;52.222;21.246;2023-12-04T11:18:44;100976.75;;;-0.28;72.00
22662;BME280;11497;52.222;21.246;2023-12-04T11:21:17;100968.56;;;-0.24;71.58
22662;BME280;11497;52.222;21.246;2023-12-04T11:23:47;100968.22;;;-0.15;71.33
22662;BME280;11497;52.222;21.246;2023-12-04T11:26:16;100960.81;;;-0.27;71.28
22662;BME280;11497;52.222;21.246;2023-12-04T11:28:44;100968.47;;;-0.25;71.67
22662;BME280;11497;52.222;21.246;2023-12-04T11:31:12;100966.22;;;-0.21;71.66
22662;BME280;11497;52.222;21.246;2023-12-04T11:33:40;100963.91;;;-0.16;71.48
22662;BME280;11497;52.222;21.246;2023-12-04T11:36:12;100965.22;;;-0.08;71.10
22662;BME280;11497;52.222;21.246;2023-12-04T11:38:49;100960.50;;;-0.02;71.34
22662;BME280;11497;52.222;21.246;2023-12-04T11:41:24;100961.88;;;0.08;71.11
22662;BME280;11497;52.222;21.246;2023-12-04T11:43:57;100960.56;;;0.15;70.79
22662;BME280;11497;52.222;21.246;2023-12-04T11:46:27;100956.53;;;0.18;70.38
22662;BME280;11497;52.222;21.246;2023-12-04T11:48:57;100955.75;;;0.20;69.45
22662;BME280;11497;52.222;21.246;2023-12-04T11:51:45;100955.09;;;0.07;70.00
22662;BME280;11497;52.222;21.246;2023-12-04T11:54:17;100949.13;;;0.07;70.00
22662;BME280;11497;52.222;21.246;2023-12-04T11:59:30;100947.78;;;-0.03;70.32
22662;BME280;11497;52.222;21.246;2023-12-04T12:02:02;100954.84;;;-0.12;71.04
22662;BME280;11497;52.222;21.246;2023-12-04T12:04:30;100945.34;;;-0.16;71.02
22662;BME280;11497;52.222;21.246;2023-12-04T12:06:59;100948.38;;;-0.07;71.34
22662;BME280;11497;52.222;21.246;2023-12-04T12:09:34;100941.75;;;-0.05;71.26
22662;BME280;11497;52.222;21.246;2023-12-04T12:12:03;100944.34;;;-0.04;70.99
22662;BME280;11497;52.222;21.246;2023-12-04T12:14:32;100944.28;;;-0.05;71.21
22662;BME280;11497;52.222;21.246;2023-12-04T12:17:00;100946.38;;;-0.13;71.01
22662;BME280;11497;52.222;21.246;2023-12-04T12:19:29;100942.47;;;-0.23;71.35
22662;BME280;11497;52.222;21.246;2023-12-04T12:21:57;100934.00;;;-0.23;70.99
22662;BME280;11497;52.222;21.246;2023-12-04T12:24:25;100932.97;;;-0.27;71.41
22662;BME280;11497;52.222;21.246;2023-12-04T12:26:54;100932.09;;;-0.27;71.64
22662;BME280;11497;52.222;21.246;2023-12-04T12:29:25;100931.75;;;-0.18;71.54
22662;BME280;11497;52.222;21.246;2023-12-04T12:31:55;100929.53;;;-0.12;70.98
22662;BME280;11497;52.222;21.246;2023-12-04T12:34:23;100930.16;;;-0.16;70.94
22662;BME280;11497;52.222;21.246;2023-12-04T12:36:51;100935.56;;;-0.10;71.07
22662;BME280;11497;52.222;21.246;2023-12-04T12:39:19;100928.94;;;-0.08;71.17
22662;BME280;11497;52.222;21.246;2023-12-04T12:41:49;100931.56;;;-0.07;71.22
22662;BME280;11497;52.222;21.246;2023-12-04T12:44:17;100933.03;;;-0.10;71.35
22662;BME280;11497;52.222;21.246;2023-12-04T12:46:50;100926.50;;;-0.07;70.79
22662;BME280;11497;52.222;21.246;2023-12-04T12:49:19;100926.22;;;-0.11;70.88
22662;BME280;11497;52.222;21.246;2023-12-04T12:52:05;100921.53;;;-0.20;71.06
22662;BME280;11497;52.222;21.246;2023-12-04T12:54:40;100920.41;;;-0.25;71.45